createdAt,value
2023-02-12T00:01:43.510Z,23.27
2023-02-12T00:04:11.135Z,24.63
2023-02-12T00:06:39.442Z,24.00
2023-02-12T00:09:07.072Z,22.95
2023-02-12T00:11:34.711Z,23.35
2023-02-12T00:14:03.093Z,23.75
2023-02-12T00:16:30.818Z,24.60
2023-02-12T00:19:00.839Z,24.20
2023-02-12T00:21:28.892Z,23.27
2023-02-12T00:23:56.559Z,22.17
2023-02-12T00:26:24.827Z,23.40
2023-02-12T00:28:52.814Z,25.58
2023-02-12T00:31:23.027Z,25.48
2023-02-12T00:33:50.795Z,24.83
2023-02-12T00:36:21.164Z,25.20
2023-02-12T00:38:49.526Z,25.48
2023-02-12T00:41:17.180Z,25.55
2023-02-12T00:43:44.871Z,25.05
2023-02-12T00:46:12.732Z,23.50
2023-02-12T00:48:40.413Z,24.65
2023-02-12T00:51:08.209Z,25.45
2023-02-12T00:53:37.481Z,24.63
2023-02-12T00:56:05.734Z,24.88
2023-02-12T00:58:33.512Z,24.00
2023-02-12T01:01:01.271Z,24.27
2023-02-12T01:03:28.996Z,22.90
2023-02-12T01:05:57.347Z,23.40
2023-02-12T01:08:25.348Z,24.83
2023-02-12T01:10:58.934Z,23.23
2023-02-12T01:13:27.281Z,23.75
2023-02-12T01:16:09.198Z,23.67
2023-02-12T01:18:37.984Z,23.70
2023-02-12T01:21:10.768Z,24.73
2023-02-12T01:23:38.355Z,23.65
2023-02-12T01:26:10.665Z,22.13
2023-02-12T01:28:38.358Z,23.10
2023-02-12T01:31:10.159Z,23.23
2023-02-12T01:33:37.833Z,23.65
2023-02-12T01:36:05.724Z,24.33
2023-02-12T01:38:33.400Z,23.88
2023-02-12T01:41:04.816Z,23.42
2023-02-12T01:43:34.667Z,17.60
2023-02-12T01:46:02.860Z,23.38
2023-02-12T01:48:35.376Z,23.52
2023-02-12T01:51:03.827Z,22.27
2023-02-12T01:53:36.766Z,22.25
2023-02-12T01:56:04.939Z,22.17
2023-02-12T01:58:37.428Z,22.10
2023-02-12T02:01:07.483Z,22.75
2023-02-12T02:03:35.571Z,23.90
2023-02-12T02:06:07.897Z,23.58
2023-02-12T02:08:35.499Z,22.58
2023-02-12T02:11:23.118Z,22.30
2023-02-12T02:14:09.670Z,24.17
2023-02-12T02:16:38.169Z,22.98
2023-02-12T02:19:10.541Z,23.77
2023-02-12T02:22:05.716Z,24.35
2023-02-12T02:24:55.147Z,23.65
2023-02-12T02:27:29.545Z,23.02
2023-02-12T02:30:30.109Z,21.95
2023-02-12T02:33:03.945Z,23.58
2023-02-12T02:35:36.509Z,24.25
2023-02-12T02:38:10.455Z,23.73
2023-02-12T02:40:42.913Z,23.73
2023-02-12T02:43:12.415Z,21.50
2023-02-12T02:45:45.007Z,21.92
2023-02-12T02:48:16.269Z,22.65
2023-02-12T02:50:48.066Z,21.20
2023-02-12T02:53:18.596Z,21.67
2023-02-12T02:55:50.042Z,22.70
2023-02-12T02:58:19.441Z,22.60
2023-02-12T03:00:50.513Z,21.55
2023-02-12T03:03:22.120Z,23.13
2023-02-12T03:05:51.922Z,23.08
2023-02-12T03:08:24.201Z,21.02
2023-02-12T03:10:54.421Z,22.77
2023-02-12T03:13:24.766Z,23.33
2023-02-12T03:15:56.825Z,22.42
2023-02-12T03:18:27.390Z,23.35
2023-02-12T03:20:58.852Z,22.30
2023-02-12T03:23:28.231Z,23.45
2023-02-12T03:25:59.247Z,22.92
2023-02-12T03:28:29.607Z,21.85
2023-02-12T03:31:04.833Z,22.63
2023-02-12T03:33:38.146Z,22.63
2023-02-12T03:36:10.906Z,21.80
2023-02-12T03:38:42.215Z,22.10
2023-02-12T03:41:12.415Z,16.20
2023-02-12T03:43:50.184Z,21.27
2023-02-12T03:46:22.465Z,19.83
2023-02-12T03:48:58.152Z,21.98
2023-02-12T03:51:30.226Z,20.25
2023-02-12T03:56:27.050Z,20.92
2023-02-12T03:58:54.630Z,22.73
2023-02-12T04:01:23.738Z,21.75
2023-02-12T04:03:51.547Z,20.67
2023-02-12T04:06:23.727Z,22.35
2023-02-12T04:08:51.386Z,22.65
2023-02-12T04:11:27.490Z,23.40
2023-02-12T04:14:07.675Z,25.13
2023-02-12T04:16:42.866Z,22.17
2023-02-12T04:19:11.883Z,22.90
2023-02-12T04:21:45.666Z,24.48
2023-02-12T04:24:18.521Z,22.20
2023-02-12T04:26:50.833Z,23.67
2023-02-12T04:29:23.049Z,23.23
2023-02-12T04:31:55.407Z,23.17
2023-02-12T04:34:28.597Z,23.92
2023-02-12T04:37:00.574Z,24.70
2023-02-12T04:39:30.383Z,22.13
2023-02-12T04:41:59.815Z,24.02
2023-02-12T04:44:28.874Z,23.58
2023-02-12T04:46:57.966Z,24.27
2023-02-12T04:49:26.066Z,24.40
2023-02-12T04:51:53.822Z,23.35
2023-02-12T04:54:22.424Z,23.25
2023-02-12T04:56:50.436Z,24.02
2023-02-12T04:59:18.375Z,23.35
2023-02-12T05:01:46.315Z,22.85
2023-02-12T05:04:17.194Z,24.77
2023-02-12T05:06:45.650Z,25.08
2023-02-12T05:09:15.896Z,23.52
2023-02-12T05:11:43.805Z,22.88
2023-02-12T05:14:11.497Z,22.70
2023-02-12T05:16:39.193Z,21.10
2023-02-12T05:19:09.390Z,21.35
2023-02-12T05:21:38.634Z,21.92
2023-02-12T05:24:06.973Z,23.00
2023-02-12T05:26:34.983Z,23.88
2023-02-12T05:29:03.323Z,22.73
2023-02-12T05:31:31.090Z,23.02
2023-02-12T05:33:58.778Z,22.70
2023-02-12T05:36:26.353Z,22.35
2023-02-12T05:38:58.930Z,22.88
2023-02-12T05:41:26.672Z,21.75
2023-02-12T05:43:54.481Z,22.40
2023-02-12T05:46:22.821Z,21.27
2023-02-12T05:48:50.432Z,20.40
2023-02-12T05:51:19.992Z,21.75
2023-02-12T05:53:47.643Z,20.58
2023-02-12T05:56:18.398Z,21.73
2023-02-12T05:58:48.167Z,21.77
2023-02-12T06:01:18.550Z,21.17
2023-02-12T06:03:46.295Z,23.83
2023-02-12T06:06:14.255Z,20.65
2023-02-12T06:08:42.151Z,21.73
2023-02-12T06:11:12.113Z,24.08
2023-02-12T06:13:41.144Z,22.00
2023-02-12T06:16:09.001Z,21.92
2023-02-12T06:18:37.014Z,22.58
2023-02-12T06:21:04.851Z,21.58
2023-02-12T06:23:32.723Z,20.95
2023-02-12T06:26:00.317Z,21.33
2023-02-12T06:28:27.983Z,21.08
2023-02-12T06:30:57.054Z,20.60
2023-02-12T06:33:24.739Z,20.80
2023-02-12T06:35:52.305Z,20.17
2023-02-12T06:38:19.908Z,20.00
2023-02-12T06:40:47.507Z,20.30
2023-02-12T06:43:15.162Z,20.52
2023-02-12T06:45:42.761Z,21.30
2023-02-12T06:48:11.650Z,20.83
2023-02-12T06:50:39.243Z,22.85
2023-02-12T06:53:06.815Z,22.48
2023-02-12T06:55:35.606Z,21.33
2023-02-12T06:58:03.197Z,22.08
2023-02-12T07:00:30.917Z,22.77
2023-02-12T07:02:58.597Z,24.15
2023-02-12T07:05:27.623Z,22.67
2023-02-12T07:07:55.188Z,23.33
2023-02-12T07:10:22.787Z,24.58
2023-02-12T07:12:50.355Z,24.08
2023-02-12T07:15:18.181Z,23.13
2023-02-12T07:17:45.761Z,23.20
2023-02-12T07:20:14.109Z,23.05
2023-02-12T07:22:43.030Z,22.92
2023-02-12T07:25:10.578Z,23.55
2023-02-12T07:27:38.614Z,23.95
2023-02-12T07:30:07.495Z,21.92
2023-02-12T07:32:35.388Z,22.83
2023-02-12T07:35:03.022Z,22.65
2023-02-12T07:37:30.633Z,24.73
2023-02-12T07:39:59.595Z,22.50
2023-02-12T07:42:27.222Z,23.27
2023-02-12T07:44:54.828Z,23.05
2023-02-12T07:47:22.421Z,23.50
2023-02-12T07:49:49.985Z,22.73
2023-02-12T07:52:17.566Z,22.42
2023-02-12T07:54:45.217Z,25.17
2023-02-12T07:57:14.228Z,25.02
2023-02-12T07:59:41.849Z,25.88
2023-02-12T08:02:10.638Z,25.58
2023-02-12T08:04:38.428Z,25.63
2023-02-12T08:07:06.056Z,22.38
2023-02-12T08:09:33.674Z,24.60
2023-02-12T08:12:01.317Z,23.60
2023-02-12T08:14:30.839Z,24.50
2023-02-12T08:16:58.414Z,24.00
2023-02-12T08:19:26.865Z,23.50
2023-02-12T08:21:55.705Z,22.77
2023-02-12T08:24:23.760Z,23.00
2023-02-12T08:26:51.715Z,23.80
2023-02-12T08:29:21.405Z,24.65
2023-02-12T08:31:51.321Z,21.67
2023-02-12T08:34:20.263Z,22.15
2023-02-12T08:36:49.344Z,24.73
2023-02-12T08:39:17.220Z,23.77
2023-02-12T08:41:45.122Z,24.85
2023-02-12T08:44:13.401Z,23.65
2023-02-12T08:46:44.164Z,23.33
2023-02-12T08:49:16.225Z,24.65
2023-02-12T08:54:13.965Z,24.55
2023-02-12T08:56:42.242Z,26.00
2023-02-12T08:59:10.339Z,24.83
2023-02-12T09:01:40.968Z,25.85
2023-02-12T09:04:09.534Z,25.70
2023-02-12T09:06:38.539Z,25.65
2023-02-12T09:09:07.224Z,25.77
2023-02-12T09:11:35.286Z,24.73
2023-02-12T09:14:05.091Z,25.63
2023-02-12T09:16:35.187Z,23.70
2023-02-12T09:19:03.095Z,24.80
2023-02-12T09:21:30.766Z,25.10
2023-02-12T09:23:59.799Z,21.67
2023-02-12T09:26:27.423Z,22.30
2023-02-12T09:28:55.398Z,22.45
2023-02-12T09:31:26.550Z,24.20
2023-02-12T09:33:55.419Z,24.75
2023-02-12T09:36:23.276Z,24.48
2023-02-12T09:38:51.119Z,23.75
2023-02-12T09:41:42.606Z,25.70
2023-02-12T09:44:13.217Z,21.65
2023-02-12T09:46:44.685Z,17.00
2023-02-12T09:49:19.092Z,18.48
2023-02-12T09:51:51.556Z,11.85
2023-02-12T09:54:21.768Z,13.15
2023-02-12T09:56:53.395Z,13.30
2023-02-12T09:59:30.054Z,13.48
2023-02-12T10:01:58.881Z,13.48
2023-02-12T10:04:27.489Z,15.70
2023-02-12T10:07:03.248Z,12.93
2023-02-12T10:09:40.525Z,14.30
2023-02-12T10:12:14.292Z,12.65
2023-02-12T10:15:14.467Z,12.18
2023-02-12T10:17:43.675Z,13.50
2023-02-12T10:20:34.625Z,13.77
2023-02-12T10:23:12.295Z,13.98
2023-02-12T10:25:47.351Z,12.90
2023-02-12T10:28:19.565Z,12.57
2023-02-12T10:33:18.930Z,14.48
2023-02-12T10:35:50.434Z,13.73
2023-02-12T10:38:21.126Z,13.23
2023-02-12T10:40:50.303Z,13.90
2023-02-12T10:43:19.221Z,13.30
2023-02-12T10:45:46.801Z,14.15
2023-02-12T10:48:18.380Z,13.35
2023-02-12T10:50:53.025Z,13.65
2023-02-12T10:53:23.309Z,13.68
2023-02-12T10:55:51.101Z,13.68
2023-02-12T10:58:22.813Z,14.02
2023-02-12T11:00:57.834Z,14.18
2023-02-12T11:03:30.249Z,14.88
2023-02-12T11:05:58.158Z,14.88
2023-02-12T11:08:31.852Z,14.63
2023-02-12T11:11:06.134Z,12.40
2023-02-12T11:13:35.383Z,13.38
2023-02-12T11:16:03.472Z,13.55
2023-02-12T11:18:33.244Z,12.73
2023-02-12T11:21:02.556Z,13.63
2023-02-12T11:23:32.032Z,14.15
2023-02-12T11:26:01.447Z,13.52
2023-02-12T11:28:29.796Z,13.80
2023-02-12T11:31:01.213Z,14.23
2023-02-12T11:33:31.880Z,13.80
2023-02-12T11:36:03.009Z,15.00
2023-02-12T11:38:34.434Z,14.25
2023-02-12T11:41:07.408Z,14.57
2023-02-12T11:43:38.415Z,14.93
2023-02-12T11:46:09.260Z,16.17
2023-02-12T11:48:39.049Z,14.43
2023-02-12T11:51:09.304Z,15.02
2023-02-12T11:53:40.119Z,14.48
2023-02-12T11:56:10.014Z,14.40
2023-02-12T11:58:37.700Z,15.85
2023-02-12T12:01:13.589Z,14.80
2023-02-12T12:03:46.460Z,15.68
2023-02-12T12:06:29.261Z,16.58
2023-02-12T12:09:01.660Z,15.93
2023-02-12T12:11:35.730Z,17.65
2023-02-12T12:14:08.340Z,13.95
2023-02-12T12:16:58.438Z,13.95
2023-02-12T12:19:47.419Z,13.77
2023-02-12T12:22:20.206Z,13.23
2023-02-12T12:24:53.963Z,14.07
2023-02-12T12:27:47.616Z,14.45
2023-02-12T12:30:21.314Z,13.32
2023-02-12T12:32:53.467Z,13.25
2023-02-12T12:37:55.990Z,12.90
2023-02-12T12:40:39.373Z,12.73
2023-02-12T12:43:14.272Z,12.68
2023-02-12T12:45:57.827Z,12.77
2023-02-12T12:48:36.277Z,11.38
2023-02-12T12:51:13.714Z,11.27
2023-02-12T12:53:55.502Z,12.02
2023-02-12T12:56:34.432Z,11.55
2023-02-12T12:59:30.379Z,11.82
2023-02-12T13:02:16.471Z,12.23
2023-02-12T13:04:56.462Z,11.25
2023-02-12T13:07:39.346Z,11.20
2023-02-12T13:10:18.296Z,12.20
2023-02-12T13:12:53.023Z,12.25
2023-02-12T13:15:28.219Z,12.43
2023-02-12T13:17:59.960Z,12.57
2023-02-12T13:20:36.705Z,12.32
2023-02-12T13:23:08.004Z,12.73
2023-02-12T13:25:38.847Z,11.90
2023-02-12T13:28:07.305Z,11.85
2023-02-12T13:30:38.460Z,11.25
2023-02-12T13:33:10.756Z,11.27
2023-02-12T13:35:42.688Z,11.82
2023-02-12T13:38:16.207Z,11.27
2023-02-12T13:40:43.987Z,10.63
2023-02-12T13:43:21.681Z,11.15
2023-02-12T13:45:52.839Z,10.45
2023-02-12T13:48:37.866Z,10.10
2023-02-12T13:51:13.188Z,10.75
2023-02-12T13:53:48.689Z,10.20
2023-02-12T13:56:29.481Z,9.38
2023-02-12T13:59:00.331Z,9.70
2023-02-12T14:01:46.514Z,9.60
2023-02-12T14:04:26.115Z,9.43
2023-02-12T14:07:00.959Z,10.52
2023-02-12T14:09:33.926Z,9.68
2023-02-12T14:12:02.252Z,9.45
2023-02-12T14:14:33.032Z,10.57
2023-02-12T14:17:34.247Z,10.60
2023-02-12T14:20:08.900Z,10.45
2023-02-12T14:23:21.638Z,10.23
2023-02-12T14:25:58.168Z,9.68
2023-02-12T14:28:29.925Z,9.88
2023-02-12T14:31:41.738Z,10.15
2023-02-12T14:34:50.069Z,10.00
2023-02-12T14:37:19.696Z,9.65
2023-02-12T14:39:48.675Z,9.68
2023-02-12T14:42:44.804Z,10.35
2023-02-12T14:45:31.029Z,10.55
2023-02-12T14:47:58.822Z,11.43
2023-02-12T14:50:31.711Z,11.77
2023-02-12T14:53:09.415Z,11.18
2023-02-12T14:55:39.288Z,12.00
2023-02-12T14:58:17.718Z,12.48
2023-02-12T15:00:47.122Z,12.55
2023-02-12T15:03:19.887Z,12.55
2023-02-12T15:05:51.344Z,11.15
2023-02-12T15:08:27.622Z,11.27
2023-02-12T15:11:00.597Z,11.75
2023-02-12T15:13:30.644Z,11.43
2023-02-12T15:16:02.781Z,11.80
2023-02-12T15:18:33.045Z,11.52
2023-02-12T15:21:02.092Z,13.07
2023-02-12T15:23:39.575Z,13.05
2023-02-12T15:26:15.650Z,12.82
2023-02-12T15:28:43.603Z,12.75
2023-02-12T15:31:11.533Z,13.18
2023-02-12T15:33:42.975Z,13.23
2023-02-12T15:36:12.169Z,13.20
2023-02-12T15:38:42.466Z,13.23
2023-02-12T15:41:26.537Z,13.10
2023-02-12T15:43:54.453Z,12.63
2023-02-12T15:46:22.165Z,13.30
2023-02-12T15:48:49.775Z,12.45
2023-02-12T15:51:21.394Z,11.90
2023-02-12T15:53:49.176Z,13.07
2023-02-12T15:56:19.728Z,13.88
2023-02-12T15:58:49.533Z,12.77
2023-02-12T16:01:19.228Z,12.68
2023-02-12T16:03:51.301Z,13.65
2023-02-12T16:06:19.879Z,12.25
2023-02-12T16:08:50.181Z,13.02
2023-02-12T16:11:21.774Z,14.02
2023-02-12T16:13:51.500Z,15.15
2023-02-12T16:16:23.640Z,13.27
2023-02-12T16:21:46.047Z,13.65
2023-02-12T16:24:23.960Z,13.15
2023-02-12T16:26:53.222Z,12.38
2023-02-12T16:29:21.043Z,13.73
2023-02-12T16:32:00.011Z,13.95
2023-02-12T16:34:36.030Z,14.68
2023-02-12T16:37:04.674Z,13.50
2023-02-12T16:40:18.637Z,14.98
2023-02-12T16:43:04.022Z,14.40
2023-02-12T16:45:39.104Z,14.15
2023-02-12T16:48:23.325Z,14.02
2023-02-12T16:50:53.059Z,13.45
2023-02-12T16:53:27.506Z,13.57
2023-02-12T16:55:55.552Z,13.82
2023-02-12T16:58:25.761Z,15.25
2023-02-12T17:00:54.107Z,13.60
2023-02-12T17:03:21.701Z,13.55
2023-02-12T17:05:51.803Z,13.95
2023-02-12T17:08:21.800Z,14.50
2023-02-12T17:10:49.798Z,15.05
2023-02-12T17:13:17.867Z,14.68
2023-02-12T17:15:51.114Z,14.32
2023-02-12T17:18:18.716Z,14.48
2023-02-12T17:20:48.969Z,14.75
2023-02-12T17:23:16.806Z,15.18
2023-02-12T17:25:44.388Z,15.82
2023-02-12T17:28:12.477Z,15.25
2023-02-12T17:30:40.225Z,15.23
2023-02-12T17:33:09.418Z,16.00
2023-02-12T17:35:38.811Z,16.60
2023-02-12T17:38:06.472Z,16.58
2023-02-12T17:40:36.074Z,15.13
2023-02-12T17:43:03.709Z,16.50
2023-02-12T17:45:31.394Z,16.58
2023-02-12T17:47:59.280Z,16.38
2023-02-12T17:50:28.241Z,17.13
2023-02-12T17:52:55.829Z,16.35
2023-02-12T17:55:23.457Z,17.90
2023-02-12T17:57:55.314Z,17.80
2023-02-12T18:00:23.594Z,18.77
2023-02-12T18:02:51.329Z,20.30
2023-02-12T18:05:19.373Z,21.15
2023-02-12T18:07:48.324Z,21.58
2023-02-12T18:10:15.971Z,19.00
2023-02-12T18:12:43.610Z,19.00
2023-02-12T18:15:11.376Z,17.55
2023-02-12T18:17:38.957Z,17.33
2023-02-12T18:20:08.123Z,17.60
2023-02-12T18:22:35.711Z,17.90
2023-02-12T18:25:04.897Z,16.23
2023-02-12T18:27:32.488Z,16.40
2023-02-12T18:30:00.121Z,17.80
2023-02-12T18:32:27.818Z,16.90
2023-02-12T18:34:55.420Z,17.75
2023-02-12T18:37:23.039Z,18.25
2023-02-12T18:39:50.652Z,17.35
2023-02-12T18:42:19.610Z,19.42
2023-02-12T18:44:47.647Z,19.83
2023-02-12T18:47:15.316Z,19.00
2023-02-12T18:49:42.928Z,20.13
2023-02-12T18:52:10.562Z,20.10
2023-02-12T18:54:38.187Z,18.38
2023-02-12T18:57:05.801Z,19.58
2023-02-12T18:59:34.729Z,18.33
2023-02-12T19:02:03.995Z,19.17
2023-02-12T19:04:31.760Z,19.75
2023-02-12T19:06:59.390Z,18.30
2023-02-12T19:09:27.496Z,18.58
2023-02-12T19:11:56.520Z,19.95
2023-02-12T19:14:25.583Z,18.30
2023-02-12T19:16:54.643Z,19.88
2023-02-12T19:19:22.634Z,20.67
2023-02-12T19:21:50.722Z,21.08
2023-02-12T19:24:19.036Z,18.00
2023-02-12T19:26:46.951Z,19.90
2023-02-12T19:29:14.900Z,22.38
2023-02-12T19:31:45.312Z,21.02
2023-02-12T19:34:16.970Z,22.55
2023-02-12T19:36:45.146Z,21.20
2023-02-12T19:39:15.517Z,20.13
2023-02-12T19:41:43.361Z,20.27
2023-02-12T19:44:13.232Z,20.95
2023-02-12T19:46:41.404Z,21.90
2023-02-12T19:49:11.427Z,22.23
2023-02-12T19:51:41.688Z,21.13
2023-02-12T19:54:10.295Z,21.30
2023-02-12T19:56:38.288Z,23.70
2023-02-12T19:59:07.160Z,20.48
2023-02-12T20:01:35.481Z,20.23
2023-02-12T20:04:03.692Z,19.73
2023-02-12T20:06:32.754Z,19.20
2023-02-12T20:09:02.028Z,20.35
2023-02-12T20:11:31.246Z,20.30
2023-02-12T20:13:59.154Z,20.35
2023-02-12T20:16:31.178Z,18.25
2023-02-12T20:19:02.091Z,18.65
2023-02-12T20:21:29.804Z,20.05
2023-02-12T20:23:57.819Z,19.35
2023-02-12T20:26:26.997Z,18.27
2023-02-12T20:28:54.855Z,18.00
2023-02-12T20:31:23.943Z,19.90
2023-02-12T20:33:55.391Z,19.25
2023-02-12T20:36:23.693Z,19.27
2023-02-12T20:38:53.224Z,17.75
2023-02-12T20:41:20.941Z,19.42
2023-02-12T20:43:49.965Z,18.75
2023-02-12T20:46:19.879Z,20.23
2023-02-12T20:48:48.044Z,19.27
2023-02-12T20:51:17.611Z,19.27
2023-02-12T20:53:45.703Z,20.20
2023-02-12T20:56:15.584Z,20.45
2023-02-12T20:58:44.880Z,20.48
2023-02-12T21:01:17.093Z,20.20
2023-02-12T21:06:12.672Z,19.30
2023-02-12T21:08:41.585Z,19.50
2023-02-12T21:11:14.579Z,18.77
2023-02-12T21:13:50.341Z,18.92
2023-02-12T21:16:29.531Z,19.85
2023-02-12T21:18:57.390Z,21.40
2023-02-12T21:21:27.018Z,21.90
2023-02-12T21:23:56.888Z,21.73
2023-02-12T21:26:26.013Z,20.67
2023-02-12T21:28:54.555Z,21.45
2023-02-12T21:31:24.303Z,21.85
2023-02-12T21:33:54.660Z,21.23
2023-02-12T21:36:24.712Z,21.90
2023-02-12T21:38:53.044Z,22.05
2023-02-12T21:41:23.300Z,22.10
2023-02-12T21:43:52.495Z,21.05
2023-02-12T21:46:21.038Z,20.27
2023-02-12T21:48:48.806Z,21.48
2023-02-12T21:51:20.245Z,22.20
2023-02-12T21:53:48.030Z,21.23
2023-02-12T21:56:16.306Z,22.17
2023-02-12T21:58:44.173Z,22.73
2023-02-12T22:01:14.136Z,24.02
2023-02-12T22:03:43.962Z,19.05
2023-02-12T22:06:12.851Z,21.70
2023-02-12T22:08:41.750Z,20.40
2023-02-12T22:11:11.702Z,24.15
2023-02-12T22:13:39.808Z,20.77
2023-02-12T22:16:11.053Z,21.52
2023-02-12T22:18:39.028Z,22.08
2023-02-12T22:21:09.687Z,20.52
2023-02-12T22:23:38.778Z,20.30
2023-02-12T22:26:09.293Z,20.55
2023-02-12T22:28:40.982Z,22.60
2023-02-12T22:31:09.238Z,21.77
2023-02-12T22:33:36.886Z,20.70
2023-02-12T22:36:05.473Z,22.13
2023-02-12T22:38:34.329Z,21.73
2023-02-12T22:41:02.179Z,21.90
2023-02-12T22:43:31.693Z,20.50
2023-02-12T22:45:59.764Z,22.63
2023-02-12T22:48:29.191Z,22.17
2023-02-12T22:50:58.226Z,22.00
2023-02-12T22:53:26.575Z,20.52
2023-02-12T22:55:54.369Z,23.00
2023-02-12T22:58:21.980Z,21.75
2023-02-12T23:00:50.938Z,21.08
2023-02-12T23:03:18.504Z,21.40
2023-02-12T23:05:46.104Z,23.20
2023-02-12T23:08:13.664Z,20.05
2023-02-12T23:10:41.295Z,21.88
2023-02-12T23:13:10.447Z,23.85
2023-02-12T23:15:38.116Z,21.25
2023-02-12T23:18:07.085Z,21.33
2023-02-12T23:20:34.674Z,21.85
2023-02-12T23:23:02.257Z,23.05
2023-02-12T23:25:29.882Z,22.35
2023-02-12T23:27:57.467Z,21.40
2023-02-12T23:30:25.116Z,20.98
2023-02-12T23:32:52.691Z,21.05
2023-02-12T23:35:21.639Z,21.13
2023-02-12T23:37:49.243Z,20.45
2023-02-12T23:40:17.133Z,21.20
2023-02-12T23:42:46.496Z,22.02
2023-02-12T23:45:14.504Z,21.70
2023-02-12T23:47:42.572Z,20.83
2023-02-12T23:50:10.904Z,19.75
2023-02-12T23:52:39.849Z,20.10
2023-02-12T23:55:07.915Z,19.75
2023-02-12T23:57:35.762Z,20.67
